Detall de PIREP

Printer-friendly versionPDF version

[2014/10/13 08:13:00]
Flight IATA:CT3207
Pilot Number:042
Company ICAO:CAT
Aircraft Type:F100/A
PAX:23
Aircraft Registration:PFJ
Departing Airport: LZIB
Destination Airport: LEPA
Alternate Airport:LEMH
Online: VATSIM
Route:TOVKA UM141 STO UM984 PADKO UY38 VATIR UN852 VERSO UL129 LUNIK
Flight Level:F320
No Slew and time accel
No pause
Crash detect
Detect pilot in Cockpit between each 30 and 45 minutes
08:13 Zero fuel Weight: 81825 Lbs, Fuel Weight: 22687 Lbs
08:13 VATSIM:LZIB 130800Z 11004KT 7000 FEW007 17/14 Q1012 NOSIG
08:13 VATSIM:LEPA 130800Z 26009KT 9999 FEW036 23/14 Q1012 NOSIG
08:19 Parking Brakes off
08:22 Take-off
08:22 Take off Weight: 104167 Lbs
08:22 Wind: 259º @ 009 Knots Heading: 136º
08:22 POS N48º 09´ 36´´ E017º 13´ 39´´
08:22 Gear Up: 180 Knots
08:22 Flaps:2 at 180 Knots
08:22 Flaps:1 at 189 Knots
08:22 Flaps:0 at 194 Knots
08:37 Wind:058º@010 Knots Heading: 212º Ground Speed: 193 Knots Altitude 27660 ft
08:49 TOC
08:49 Fuel Weight: 19155 Lb
08:52 Wind:208º@006 Knots Heading: 253º Ground Speed: 442 Knots Altitude 32017 ft
09:07 Wind:121º@008 Knots Heading: 240º Ground Speed: 447 Knots Altitude 32109 ft
09:22 Wind:073º@034 Knots Heading: 230º Ground Speed: 472 Knots Altitude 31994 ft
09:37 Wind:283º@013 Knots Heading: 215º Ground Speed: 445 Knots Altitude 31981 ft
09:52 Wind:159º@008 Knots Heading: 245º Ground Speed: 449 Knots Altitude 31893 ft
10:07 Wind:187º@018 Knots Heading: 207º Ground Speed: 437 Knots Altitude 31856 ft
10:17 TOD
10:17 Fuel Weight: 12275 Lb
10:22 Wind:229º@043 Knots Heading: 194º Ground Speed: 280 Knots Altitude 21771 ft
10:36 Flaps:1 at 193 Knots
10:37 Wind:247º@021 Knots Heading: 266º Ground Speed: 183 Knots Altitude 3024 ft
10:40 Gear Down: 182 Knots
10:40 Flaps:3 at 182 Knots
10:44 TouchDown:Rate -102 ft/min Speed: 151 Knots
10:44 VATSIM:LEPA 131030Z 25014KT 9999 FEW030 25/13 Q1012 NOSIG
10:44 Land
10:44 Wind:249º@014 Knots
10:44 Heading: 243º
10:44 Flight Duration: 02:22
10:44 Landing Weight: 92483 Lbs
10:44 POS N39º 32´ 56´´ E002º 44´ 53´´
10:47 Parking brakes on
10:47 Block to Block Duration: 02:28
10:47 Final Fuel: 10509 Lbls
10:47 Spent Fuel: 12178 Lbls
10:47 Flight Length: 782 NM
10:47 TOD Land Length: 104 NM

Exportar CSV

Powered by Drupal - Modified by Danger4k